Time;durP1;ratioP1;P1;durP2;ratioP2;P2;SDS_P1;SDS_P2;PMS_P1;PMS_P2;Temp;Humidity;BMP_temperature;BMP_pressure;BME280_temperature;BME280_humidity;BME280_pressure;Samples;Min_cycle;Max_cycle;Signal;HPM_P1;HPM_P2
2023/12/05 00:00:55;;;;;;;77.13;36.22;;;5.00;99.90;;;;;;5013740;28;20026;-69
2023/12/05 00:03:21;;;;;;;79.13;36.53;;;4.90;99.90;;;;;;5013672;28;20049;-69
2023/12/05 00:05:46;;;;;;;75.68;36.50;;;5.00;99.90;;;;;;5015168;28;20363;-69
2023/12/05 00:08:13;;;;;;;84.63;37.55;;;5.00;99.90;;;;;;5014884;28;20431;-68
2023/12/05 00:10:39;;;;;;;82.50;36.95;;;5.00;99.90;;;;;;5013754;28;20066;-70
2023/12/05 00:13:07;;;;;;;76.70;37.53;;;4.90;99.90;;;;;;5013347;28;20068;-69
2023/12/05 00:15:33;;;;;;;82.75;39.35;;;5.00;99.90;;;;;;5013247;28;20022;-69
2023/12/05 00:17:58;;;;;;;75.25;34.85;;;5.00;99.90;;;;;;5010449;28;20026;-70
2023/12/05 00:20:24;;;;;;;72.88;34.17;;;5.00;99.90;;;;;;5012072;28;20471;-68
2023/12/05 00:22:50;;;;;;;74.20;35.47;;;5.00;99.90;;;;;;5011276;28;20034;-69
2023/12/05 00:25:16;;;;;;;75.43;36.72;;;5.00;99.90;;;;;;5013922;28;20122;-69
2023/12/05 00:27:41;;;;;;;76.95;35.35;;;5.00;99.90;;;;;;5011392;28;20553;-69
2023/12/05 00:30:08;;;;;;;79.30;35.03;;;5.00;99.90;;;;;;5009843;28;20402;-70
2023/12/05 00:32:33;;;;;;;73.88;34.70;;;5.00;99.90;;;;;;5012031;28;20069;-69
2023/12/05 00:34:59;;;;;;;77.65;35.25;;;5.00;99.90;;;;;;5014499;28;20030;-69
2023/12/05 00:37:25;;;;;;;80.57;36.45;;;5.00;99.90;;;;;;5012708;28;20436;-69
2023/12/05 00:39:50;;;;;;;73.60;34.83;;;5.10;99.90;;;;;;5014871;28;20026;-70
2023/12/05 00:42:16;;;;;;;69.68;33.55;;;5.10;99.90;;;;;;5010522;28;20510;-69
2023/12/05 00:44:41;;;;;;;73.50;34.70;;;5.20;99.90;;;;;;5013665;28;20391;-70
2023/12/05 00:47:07;;;;;;;71.35;34.72;;;5.20;99.90;;;;;;5011063;28;20387;-69
2023/12/05 00:49:34;;;;;;;74.18;34.42;;;5.20;99.90;;;;;;5013715;28;20387;-69
2023/12/05 00:52:00;;;;;;;78.03;34.45;;;5.20;99.90;;;;;;5011392;28;20029;-70
2023/12/05 00:54:26;;;;;;;74.05;34.38;;;5.10;99.90;;;;;;5013006;28;20041;-70
2023/12/05 00:56:52;;;;;;;78.70;33.80;;;5.20;99.90;;;;;;5013006;28;20026;-69
2023/12/05 00:59:17;;;;;;;75.78;35.45;;;5.20;99.90;;;;;;5012449;28;20033;-70
2023/12/05 01:01:43;;;;;;;75.78;35.80;;;5.10;99.90;;;;;;5012429;28;20135;-69
2023/12/05 01:04:09;;;;;;;78.03;37.72;;;5.10;99.90;;;;;;5012580;28;20022;-69
2023/12/05 01:06:34;;;;;;;81.95;37.45;;;5.20;99.90;;;;;;5013262;28;20356;-69
2023/12/05 01:09:00;;;;;;;80.32;37.10;;;5.10;99.90;;;;;;5009666;28;20048;-69
2023/12/05 01:11:26;;;;;;;73.43;34.50;;;5.20;99.90;;;;;;5011893;28;20471;-71
2023/12/05 01:13:51;;;;;;;91.43;36.25;;;5.20;99.90;;;;;;5014357;28;20018;-69
2023/12/05 01:16:17;;;;;;;79.38;36.10;;;5.20;99.90;;;;;;5009897;28;20452;-69
2023/12/05 01:18:43;;;;;;;75.10;34.03;;;5.20;99.90;;;;;;5012167;28;20084;-69
2023/12/05 01:21:09;;;;;;;71.88;35.13;;;5.20;99.90;;;;;;5009774;28;20038;-69
2023/12/05 01:23:35;;;;;;;73.45;35.53;;;5.10;99.90;;;;;;5010744;28;20033;-70
2023/12/05 01:26:00;;;;;;;87.55;37.15;;;5.10;99.90;;;;;;5011891;28;20034;-70
2023/12/05 01:28:26;;;;;;;79.45;36.47;;;5.20;99.90;;;;;;5008789;28;20042;-69
2023/12/05 01:30:52;;;;;;;72.53;34.42;;;5.20;99.90;;;;;;5012360;28;20619;-69
2023/12/05 01:33:17;;;;;;;81.20;35.40;;;5.20;99.90;;;;;;5010121;28;20026;-69
2023/12/05 01:35:43;;;;;;;78.00;35.95;;;5.30;99.90;;;;;;5010521;28;20479;-69
2023/12/05 01:38:08;;;;;;;90.20;40.75;;;5.30;99.90;;;;;;5013484;28;20026;-70
2023/12/05 01:40:34;;;;;;;77.28;37.13;;;5.30;99.90;;;;;;5011330;28;20460;-69
2023/12/05 01:43:00;;;;;;;78.00;37.03;;;5.30;99.90;;;;;;5010441;28;20133;-69
2023/12/05 01:45:25;;;;;;;83.78;38.42;;;5.20;99.90;;;;;;5011272;28;20493;-69
2023/12/05 01:47:51;;;;;;;74.68;36.50;;;5.30;99.90;;;;;;5012585;28;20394;-69
2023/12/05 01:50:23;;;;;;;71.85;32.88;;;5.30;99.90;;;;;;5011181;28;20403;-69
2023/12/05 01:52:52;;;;;;;88.43;37.10;;;5.30;99.90;;;;;;5005658;28;20034;-69
2023/12/05 01:55:19;;;;;;;77.25;36.30;;;5.30;99.90;;;;;;4994556;28;20524;-69
2023/12/05 01:57:46;;;;;;;80.40;34.97;;;5.30;99.90;;;;;;5008400;28;20105;-69
2023/12/05 02:00:13;;;;;;;68.45;33.08;;;5.30;99.90;;;;;;5012390;28;20037;-71
2023/12/05 02:02:40;;;;;;;80.88;35.47;;;5.30;99.90;;;;;;5010748;28;20036;-69
2023/12/05 02:05:07;;;;;;;69.45;33.05;;;5.40;99.90;;;;;;5009773;28;20156;-69
2023/12/05 02:07:34;;;;;;;71.22;33.20;;;5.40;99.90;;;;;;5012999;28;20116;-69
2023/12/05 02:10:00;;;;;;;75.15;33.35;;;5.50;99.90;;;;;;5011030;28;20047;-70
2023/12/05 02:12:25;;;;;;;84.95;33.90;;;5.50;99.90;;;;;;5011485;28;20466;-71
2023/12/05 02:14:51;;;;;;;71.05;32.95;;;5.60;99.90;;;;;;5011635;28;20026;-69
2023/12/05 02:17:20;;;;;;;73.70;33.95;;;5.60;99.90;;;;;;5009098;28;20027;-69
2023/12/05 02:19:54;;;;;;;70.97;34.03;;;5.60;99.90;;;;;;5010541;28;20026;-68
2023/12/05 02:23:02;;;;;;;76.93;34.55;;;5.60;99.90;;;;;;5006421;28;20537;-69
2023/12/05 02:26:06;;;;;;;71.15;32.33;;;5.60;99.90;;;;;;5011243;28;20029;-69
2023/12/05 02:28:32;;;;;;;71.68;33.55;;;5.60;99.90;;;;;;5010643;28;20052;-69
2023/12/05 02:30:58;;;;;;;84.32;35.25;;;5.60;99.90;;;;;;5010725;28;20045;-68
2023/12/05 02:33:24;;;;;;;76.05;33.70;;;5.60;99.90;;;;;;5009895;28;20033;-69
2023/12/05 02:36:07;;;;;;;97.80;36.63;;;5.60;99.90;;;;;;5011671;28;20107;-68
2023/12/05 02:38:57;;;;;;;75.05;34.35;;;5.70;99.90;;;;;;5008452;28;20565;-70
2023/12/05 02:41:30;;;;;;;87.35;34.30;;;5.70;99.90;;;;;;5009502;28;20033;-69
2023/12/05 02:44:09;;;;;;;87.45;35.55;;;5.70;99.90;;;;;;5006524;28;20033;-68
2023/12/05 02:46:37;;;;;;;81.00;35.90;;;5.70;99.90;;;;;;5006850;28;20057;-69
2023/12/05 02:49:04;;;;;;;81.97;34.92;;;5.70;99.90;;;;;;5009701;28;20045;-68
2023/12/05 02:51:30;;;;;;;82.93;35.28;;;5.70;99.90;;;;;;5009336;28;20026;-69
2023/12/05 02:54:01;;;;;;;103.05;37.33;;;5.70;99.90;;;;;;5009461;28;20080;-69
2023/12/05 02:56:27;;;;;;;78.25;33.42;;;5.60;99.90;;;;;;5007727;28;20057;-69
2023/12/05 02:58:53;;;;;;;80.60;36.30;;;5.70;99.90;;;;;;5011513;28;20364;-69
2023/12/05 03:01:19;;;;;;;73.70;34.25;;;5.80;99.90;;;;;;5011476;28;20504;-69
2023/12/05 03:03:44;;;;;;;89.72;35.83;;;5.80;99.90;;;;;;5008798;28;20380;-68
2023/12/05 03:06:10;;;;;;;82.47;35.05;;;5.70;99.90;;;;;;5011285;28;20390;-70
2023/12/05 03:08:36;;;;;;;99.63;36.67;;;5.80;99.90;;;;;;5008378;28;20509;-68
2023/12/05 03:11:02;;;;;;;78.97;35.63;;;5.80;99.90;;;;;;5009860;28;20037;-68
2023/12/05 03:13:27;;;;;;;90.68;34.10;;;5.80;99.90;;;;;;5007434;28;20149;-68
2023/12/05 03:15:53;;;;;;;93.63;35.25;;;5.80;99.90;;;;;;5011533;28;20026;-68
2023/12/05 03:18:19;;;;;;;78.20;35.70;;;5.80;99.90;;;;;;5010829;28;20026;-69
2023/12/05 03:20:44;;;;;;;91.10;38.85;;;5.80;99.90;;;;;;5008328;28;20490;-69
2023/12/05 03:23:10;;;;;;;123.07;41.30;;;5.80;99.90;;;;;;5009394;28;20152;-69
2023/12/05 03:25:36;;;;;;;98.78;36.28;;;5.80;99.90;;;;;;5011358;28;20383;-69
2023/12/05 03:28:01;;;;;;;101.55;39.08;;;5.80;99.90;;;;;;5007638;28;20037;-69
2023/12/05 03:30:27;;;;;;;83.90;36.45;;;5.80;99.90;;;;;;5009378;28;20498;-68
2023/12/05 03:32:53;;;;;;;95.47;37.47;;;5.80;99.90;;;;;;5008386;28;20029;-69
2023/12/05 03:35:18;;;;;;;89.18;36.85;;;5.80;99.90;;;;;;5010741;28;20021;-69
2023/12/05 03:37:44;;;;;;;98.30;40.00;;;5.80;99.90;;;;;;5006982;28;20383;-68
2023/12/05 03:40:10;;;;;;;102.45;41.20;;;5.90;99.90;;;;;;5010310;28;20498;-68
2023/12/05 03:42:36;;;;;;;95.47;40.80;;;5.90;99.90;;;;;;5010613;28;20022;-68
2023/12/05 03:45:01;;;;;;;105.13;41.03;;;6.00;99.90;;;;;;5007174;28;20038;-69
2023/12/05 03:47:27;;;;;;;93.20;37.65;;;6.00;99.90;;;;;;4993806;28;20475;-69
2023/12/05 03:49:53;;;;;;;118.35;42.15;;;6.00;99.90;;;;;;5006155;28;20096;-68
2023/12/05 03:52:19;;;;;;;89.45;38.30;;;5.90;99.90;;;;;;5011177;28;20032;-68
2023/12/05 03:54:44;;;;;;;88.13;37.20;;;6.00;99.90;;;;;;5008075;28;20104;-68
2023/12/05 03:57:10;;;;;;;75.05;35.08;;;6.00;99.90;;;;;;5010716;28;20486;-68
2023/12/05 03:59:36;;;;;;;89.70;38.53;;;6.10;99.90;;;;;;5009047;28;20522;-69
2023/12/05 04:02:01;;;;;;;157.07;48.42;;;6.00;99.90;;;;;;5009830;28;20037;-68
2023/12/05 04:04:27;;;;;;;93.45;41.05;;;6.00;99.90;;;;;;5010258;28;20022;-69
2023/12/05 04:06:53;;;;;;;106.88;43.75;;;6.10;99.90;;;;;;5007962;28;20033;-68
2023/12/05 04:09:18;;;;;;;101.55;40.70;;;6.10;99.90;;;;;;5010279;28;20536;-73
2023/12/05 04:11:44;;;;;;;99.75;39.33;;;6.10;99.90;;;;;;4993977;28;20393;-70
2023/12/05 04:14:09;;;;;;;93.18;38.83;;;6.10;99.90;;;;;;5008402;28;20420;-69
2023/12/05 04:16:35;;;;;;;89.00;40.75;;;6.20;99.90;;;;;;5008666;28;20482;-69
2023/12/05 04:19:01;;;;;;;98.78;42.05;;;6.20;99.90;;;;;;5010696;28;20030;-72
2023/12/05 04:21:26;;;;;;;88.30;38.38;;;6.20;99.90;;;;;;5009157;28;20383;-69
2023/12/05 04:23:52;;;;;;;91.30;40.58;;;6.20;99.90;;;;;;5007285;28;20525;-69
2023/12/05 04:26:19;;;;;;;88.57;39.22;;;6.20;99.90;;;;;;5009384;28;20046;-69
2023/12/05 04:28:46;;;;;;;129.85;46.38;;;6.30;99.90;;;;;;5009333;28;20809;-69
2023/12/05 04:31:12;;;;;;;90.97;42.90;;;6.20;99.90;;;;;;5006568;28;20040;-69
2023/12/05 04:33:42;;;;;;;117.60;44.97;;;6.30;99.90;;;;;;5009822;28;20034;-71
2023/12/05 04:36:08;;;;;;;94.32;40.72;;;6.20;99.90;;;;;;5008917;28;20475;-70
2023/12/05 04:38:37;;;;;;;88.65;39.72;;;6.20;99.90;;;;;;5009320;28;20112;-69
2023/12/05 04:41:03;;;;;;;98.25;42.53;;;6.30;99.90;;;;;;5010462;28;20022;-69
2023/12/05 04:43:30;;;;;;;91.47;38.53;;;6.30;99.90;;;;;;5006676;28;20037;-69
2023/12/05 04:45:57;;;;;;;90.72;40.30;;;6.30;99.90;;;;;;5010295;28;20413;-68
2023/12/05 04:48:22;;;;;;;97.75;41.97;;;6.30;99.90;;;;;;5014968;28;20036;-69
2023/12/05 04:50:48;;;;;;;111.80;43.80;;;6.30;99.90;;;;;;5012245;28;20022;-70
2023/12/05 04:53:14;;;;;;;90.28;40.97;;;6.30;99.90;;;;;;5012381;28;20026;-70
2023/12/05 04:55:40;;;;;;;152.52;52.33;;;6.30;99.90;;;;;;5013744;28;20032;-69
2023/12/05 04:58:05;;;;;;;99.47;45.10;;;6.30;99.90;;;;;;5012385;28;20034;-69
2023/12/05 05:00:32;;;;;;;97.35;42.92;;;6.40;99.90;;;;;;5012506;28;20032;-70
2023/12/05 05:02:57;;;;;;;107.00;40.65;;;6.40;99.90;;;;;;5011439;28;20049;-69
2023/12/05 05:05:23;;;;;;;95.40;40.22;;;6.40;99.90;;;;;;5010264;28;20069;-69
2023/12/05 05:07:49;;;;;;;92.68;40.70;;;6.40;99.90;;;;;;5012389;28;20438;-69
2023/12/05 05:10:14;;;;;;;91.00;41.90;;;6.40;99.90;;;;;;5011008;28;20440;-72
2023/12/05 05:12:40;;;;;;;104.30;45.72;;;6.40;99.90;;;;;;5011082;28;20461;-69
2023/12/05 05:15:06;;;;;;;99.00;43.83;;;6.40;99.90;;;;;;5011030;28;20474;-70
2023/12/05 05:17:32;;;;;;;111.30;43.95;;;6.40;99.90;;;;;;5011502;28;20027;-69
2023/12/05 05:19:58;;;;;;;85.80;42.25;;;6.40;99.90;;;;;;5009200;28;20022;-68
2023/12/05 05:22:23;;;;;;;108.55;45.20;;;6.40;99.90;;;;;;5009260;28;20053;-70
2023/12/05 05:24:49;;;;;;;102.28;41.50;;;6.40;99.90;;;;;;5012368;28;20494;-71
2023/12/05 05:27:15;;;;;;;110.32;44.58;;;6.40;99.90;;;;;;5011237;28;20034;-71
2023/12/05 05:29:41;;;;;;;108.47;44.47;;;6.40;99.90;;;;;;5013681;28;20475;-68
2023/12/05 05:32:07;;;;;;;105.45;43.15;;;6.40;99.90;;;;;;5012250;28;20054;-69
2023/12/05 05:34:33;;;;;;;91.30;41.40;;;6.40;99.90;;;;;;5009116;28;20070;-70
2023/12/05 05:36:59;;;;;;;103.78;41.72;;;6.40;99.90;;;;;;5013208;28;20422;-68
2023/12/05 05:39:24;;;;;;;109.75;41.13;;;6.40;99.90;;;;;;5010045;28;20029;-70
2023/12/05 05:41:50;;;;;;;98.82;40.90;;;6.40;99.90;;;;;;5012222;28;20795;-69
2023/12/05 05:44:16;;;;;;;127.00;44.58;;;6.40;99.90;;;;;;5010335;28;20466;-69
2023/12/05 05:46:41;;;;;;;98.43;42.17;;;6.40;99.90;;;;;;4994046;28;20072;-69
2023/12/05 05:49:07;;;;;;;92.53;39.85;;;6.40;99.90;;;;;;5010083;28;20030;-70
2023/12/05 05:51:33;;;;;;;134.00;48.75;;;6.40;99.90;;;;;;5012168;28;20368;-72
2023/12/05 05:53:59;;;;;;;101.82;44.22;;;6.40;99.90;;;;;;5010747;28;20037;-72
2023/12/05 05:56:25;;;;;;;99.55;42.15;;;6.40;99.90;;;;;;5009803;28;20018;-69
2023/12/05 05:58:50;;;;;;;100.55;41.97;;;6.30;99.90;;;;;;5010765;28;20034;-68
2023/12/05 06:01:16;;;;;;;103.47;43.45;;;6.40;99.90;;;;;;5012096;28;20030;-68
2023/12/05 06:03:42;;;;;;;94.03;41.20;;;6.40;99.90;;;;;;5012159;28;20463;-73
2023/12/05 06:06:08;;;;;;;98.78;40.28;;;6.50;99.90;;;;;;5011446;28;20492;-69
2023/12/05 06:08:35;;;;;;;110.38;43.42;;;6.50;99.90;;;;;;5012905;28;20030;-69
2023/12/05 06:11:00;;;;;;;103.10;40.42;;;6.50;99.90;;;;;;5008991;28;20018;-69
2023/12/05 06:13:26;;;;;;;134.13;46.90;;;6.50;99.90;;;;;;5012314;28;20032;-69
2023/12/05 06:15:52;;;;;;;118.53;48.67;;;6.40;99.90;;;;;;5009299;28;20103;-70
2023/12/05 06:18:18;;;;;;;100.32;44.45;;;6.40;99.90;;;;;;5011673;28;20073;-70
2023/12/05 06:20:44;;;;;;;96.05;42.88;;;6.40;99.90;;;;;;5012294;28;20076;-70
2023/12/05 06:23:10;;;;;;;93.13;42.72;;;6.40;99.90;;;;;;5007720;28;20037;-72
2023/12/05 06:25:36;;;;;;;91.38;40.72;;;6.40;99.90;;;;;;5007363;28;20026;-69
2023/12/05 06:28:02;;;;;;;103.05;43.20;;;6.40;99.90;;;;;;5009267;28;20030;-69
2023/12/05 06:30:28;;;;;;;128.30;47.85;;;6.40;99.90;;;;;;5011007;28;20022;-69
2023/12/05 06:32:54;;;;;;;111.60;44.63;;;6.40;99.90;;;;;;5009256;28;20426;-69
2023/12/05 06:35:19;;;;;;;114.57;47.03;;;6.40;99.90;;;;;;4991812;28;20022;-70
2023/12/05 06:37:45;;;;;;;173.98;53.58;;;6.40;99.90;;;;;;5008207;28;20395;-69
2023/12/05 06:40:11;;;;;;;112.38;46.95;;;6.40;99.90;;;;;;5010433;28;20032;-71
2023/12/05 06:42:37;;;;;;;158.45;53.30;;;6.40;99.90;;;;;;5009121;28;20471;-70
2023/12/05 06:45:04;;;;;;;124.28;49.03;;;6.40;99.90;;;;;;5011212;28;20027;-70
2023/12/05 06:47:30;;;;;;;115.82;48.15;;;6.40;99.90;;;;;;5011506;28;20113;-69
2023/12/05 06:50:00;;;;;;;97.75;43.75;;;6.40;99.90;;;;;;4991888;28;20048;-71
2023/12/05 06:52:25;;;;;;;120.03;49.42;;;6.40;99.90;;;;;;5011316;28;20025;-69
2023/12/05 06:54:51;;;;;;;112.15;45.22;;;6.40;99.90;;;;;;5010352;28;20024;-71
2023/12/05 06:57:17;;;;;;;119.22;45.90;;;6.30;99.90;;;;;;5007660;28;20037;-70
2023/12/05 06:59:42;;;;;;;110.63;42.95;;;6.40;99.90;;;;;;5010769;28;20522;-71
2023/12/05 07:02:08;;;;;;;84.35;38.42;;;6.30;99.90;;;;;;5009038;28;20021;-73
2023/12/05 07:04:34;;;;;;;87.10;38.13;;;6.40;99.90;;;;;;5010055;28;20060;-69
2023/12/05 07:07:00;;;;;;;85.78;38.97;;;6.40;99.90;;;;;;5010734;28;20468;-72
2023/12/05 07:09:26;;;;;;;87.35;39.50;;;6.40;99.90;;;;;;5006744;28;20045;-70
2023/12/05 07:11:52;;;;;;;79.38;36.80;;;6.40;99.90;;;;;;5012064;28;20391;-69
2023/12/05 07:14:17;;;;;;;126.88;44.50;;;6.40;99.90;;;;;;5008067;28;20029;-72
2023/12/05 07:16:43;;;;;;;80.18;36.00;;;6.40;99.90;;;;;;5009338;28;20532;-70
2023/12/05 07:19:09;;;;;;;94.82;38.75;;;6.30;99.90;;;;;;5010585;28;20612;-70
2023/12/05 07:21:34;;;;;;;75.70;34.05;;;6.40;99.90;;;;;;5005463;28;20045;-70
2023/12/05 07:24:00;;;;;;;73.10;34.95;;;6.50;99.90;;;;;;5011029;28;20390;-69
2023/12/05 07:26:26;;;;;;;72.00;34.00;;;6.50;99.90;;;;;;5008383;28;20033;-69
2023/12/05 07:28:51;;;;;;;83.00;34.90;;;6.50;99.90;;;;;;5011628;28;20042;-69
2023/12/05 07:31:17;;;;;;;93.35;37.97;;;6.40;99.90;;;;;;5008168;28;20494;-69
2023/12/05 07:33:43;;;;;;;71.95;33.20;;;6.40;99.90;;;;;;5004915;28;20511;-72
2023/12/05 07:36:09;;;;;;;74.50;34.03;;;6.30;99.90;;;;;;5010916;28;20387;-71
2023/12/05 07:38:35;;;;;;;102.60;38.30;;;6.30;99.90;;;;;;5007493;28;20040;-70
2023/12/05 07:41:01;;;;;;;83.43;39.00;;;6.40;99.90;;;;;;5008745;28;20025;-69
2023/12/05 07:43:26;;;;;;;87.43;37.60;;;6.40;99.90;;;;;;5010546;28;20040;-68
2023/12/05 07:45:52;;;;;;;92.40;39.25;;;6.50;99.90;;;;;;5007923;28;20026;-69
2023/12/05 07:48:18;;;;;;;80.60;36.67;;;6.40;99.90;;;;;;4992939;28;20042;-68
2023/12/05 07:50:44;;;;;;;90.45;37.63;;;6.40;99.90;;;;;;5009507;28;20093;-74
2023/12/05 07:53:09;;;;;;;106.43;40.95;;;6.50;99.90;;;;;;5010989;28;20430;-74
2023/12/05 07:55:35;;;;;;;140.93;43.05;;;6.40;99.90;;;;;;5011276;28;20390;-70
2023/12/05 07:58:01;;;;;;;127.18;41.58;;;6.40;99.90;;;;;;5006620;28;20032;-70
2023/12/05 08:00:26;;;;;;;113.90;40.05;;;6.50;99.90;;;;;;4992139;28;20125;-70
2023/12/05 08:02:52;;;;;;;92.65;38.20;;;6.40;99.90;;;;;;5008002;28;20113;-70
2023/12/05 08:05:18;;;;;;;85.85;37.03;;;6.40;99.90;;;;;;5008919;28;20036;-71
2023/12/05 08:07:44;;;;;;;100.43;39.50;;;6.40;99.90;;;;;;5010266;28;20124;-72
2023/12/05 08:10:10;;;;;;;102.85;39.70;;;6.50;99.90;;;;;;5010855;28;20045;-69
2023/12/05 08:12:36;;;;;;;97.55;38.90;;;6.50;99.90;;;;;;5008493;28;20033;-69
2023/12/05 08:15:03;;;;;;;116.20;41.92;;;6.50;99.90;;;;;;5006834;28;20022;-72
2023/12/05 08:17:29;;;;;;;104.07;40.80;;;6.50;99.90;;;;;;4991360;28;20013;-68
2023/12/05 08:19:55;;;;;;;142.88;44.20;;;6.50;99.90;;;;;;5008084;28;20394;-69
2023/12/05 08:22:21;;;;;;;134.32;45.72;;;6.50;99.90;;;;;;5010583;28;20414;-71
2023/12/05 08:24:49;;;;;;;110.63;43.78;;;6.50;99.90;;;;;;5014029;28;20033;-71
2023/12/05 08:27:15;;;;;;;112.25;45.58;;;6.50;99.90;;;;;;5012334;28;20041;-69
2023/12/05 08:29:40;;;;;;;124.40;46.05;;;6.50;99.90;;;;;;4997164;28;20030;-69
2023/12/05 08:32:07;;;;;;;122.10;46.85;;;6.50;99.90;;;;;;5012001;28;20049;-68
2023/12/05 08:34:33;;;;;;;124.78;46.97;;;6.50;99.90;;;;;;4995832;28;20380;-69
2023/12/05 08:37:00;;;;;;;105.65;44.05;;;6.50;99.90;;;;;;4997695;28;20037;-68
2023/12/05 08:39:25;;;;;;;111.95;44.03;;;6.50;99.90;;;;;;5012902;28;20096;-69
2023/12/05 08:41:52;;;;;;;115.65;44.70;;;6.50;99.90;;;;;;5014407;28;20566;-70
2023/12/05 08:44:19;;;;;;;124.35;45.58;;;6.50;99.90;;;;;;4994896;28;20447;-69
2023/12/05 08:46:46;;;;;;;120.75;45.03;;;6.50;99.90;;;;;;5011453;28;20037;-68
2023/12/05 08:49:15;;;;;;;206.70;56.13;;;6.50;99.90;;;;;;5011252;28;20552;-68
2023/12/05 08:51:41;;;;;;;109.95;44.55;;;6.60;99.90;;;;;;5009273;28;20445;-68
2023/12/05 08:54:07;;;;;;;129.50;45.65;;;6.60;99.90;;;;;;5011225;28;20022;-70
2023/12/05 08:56:32;;;;;;;147.05;50.95;;;6.60;99.90;;;;;;4995469;28;20459;-69
2023/12/05 08:58:58;;;;;;;140.07;49.53;;;6.60;99.90;;;;;;5010039;28;20104;-70
2023/12/05 09:01:25;;;;;;;144.40;50.47;;;6.60;99.90;;;;;;4996300;28;20497;-69
2023/12/05 09:03:51;;;;;;;140.65;48.50;;;6.60;99.90;;;;;;4989861;28;20034;-69
2023/12/05 09:06:17;;;;;;;159.10;49.33;;;6.60;99.90;;;;;;5012746;28;20034;-69
2023/12/05 09:08:42;;;;;;;128.07;45.50;;;6.60;99.90;;;;;;5012554;28;20065;-69
2023/12/05 09:11:08;;;;;;;121.43;45.85;;;6.60;99.90;;;;;;5012263;28;20677;-69
2023/12/05 09:13:34;;;;;;;127.70;46.25;;;6.70;99.90;;;;;;5009586;28;20030;-69
2023/12/05 09:16:00;;;;;;;129.90;45.28;;;6.70;99.90;;;;;;5011740;28;20486;-70
2023/12/05 09:18:26;;;;;;;151.02;48.10;;;6.80;99.90;;;;;;5012554;28;20065;-69
2023/12/05 09:20:51;;;;;;;140.10;45.67;;;6.70;99.90;;;;;;5009958;28;20026;-69
2023/12/05 09:23:17;;;;;;;172.40;48.03;;;6.70;99.90;;;;;;5013132;28;20034;-69
2023/12/05 09:25:44;;;;;;;154.88;47.85;;;6.70;99.90;;;;;;5009831;28;20029;-69
2023/12/05 09:28:10;;;;;;;138.73;45.72;;;6.70;99.90;;;;;;5012643;28;20073;-70
2023/12/05 09:30:36;;;;;;;167.18;49.25;;;6.70;99.90;;;;;;5011103;28;20026;-71
2023/12/05 09:33:02;;;;;;;166.18;48.53;;;6.70;99.90;;;;;;5010943;28;20030;-69
2023/12/05 09:35:28;;;;;;;164.60;47.83;;;6.70;99.90;;;;;;5013063;28;20025;-69
2023/12/05 09:37:53;;;;;;;146.65;46.83;;;6.70;99.90;;;;;;5012331;28;20022;-69
2023/12/05 09:40:19;;;;;;;122.78;42.17;;;6.60;99.90;;;;;;4994486;28;20037;-69
2023/12/05 09:42:48;;;;;;;134.40;44.20;;;6.60;99.90;;;;;;5008686;28;20414;-69
2023/12/05 09:45:15;;;;;;;139.07;44.08;;;6.60;99.90;;;;;;5013350;28;20032;-69
2023/12/05 09:47:52;;;;;;;172.52;48.38;;;6.60;99.90;;;;;;5009735;28;20030;-69
2023/12/05 09:50:19;;;;;;;119.80;41.90;;;6.60;99.90;;;;;;5013479;28;20025;-69
2023/12/05 09:52:45;;;;;;;116.38;38.72;;;6.60;99.90;;;;;;5009818;28;20491;-75
2023/12/05 09:55:11;;;;;;;120.93;41.10;;;6.60;99.90;;;;;;5012985;28;20030;-76
2023/12/05 09:57:38;;;;;;;123.10;40.25;;;6.70;99.90;;;;;;4995529;28;20026;-73
2023/12/05 10:00:05;;;;;;;126.43;40.63;;;6.70;99.90;;;;;;5009905;28;20026;-70
2023/12/05 10:02:32;;;;;;;197.23;50.25;;;6.70;99.90;;;;;;4982958;28;21076;-69
2023/12/05 10:05:05;;;;;;;165.82;50.20;;;6.60;99.90;;;;;;4988954;28;20026;-69
2023/12/05 10:07:31;;;;;;;146.88;46.25;;;6.60;99.90;;;;;;4996247;28;20084;-69
2023/12/05 10:09:57;;;;;;;140.27;44.35;;;6.50;99.90;;;;;;4996915;28;20788;-69
2023/12/05 10:12:23;;;;;;;149.05;45.13;;;6.50;99.90;;;;;;4996491;28;20030;-69
2023/12/05 10:14:51;;;;;;;128.43;44.25;;;6.50;99.90;;;;;;4984608;28;20026;-74
2023/12/05 10:17:18;;;;;;;141.05;46.88;;;6.50;99.90;;;;;;4996134;28;20088;-70
2023/12/05 10:19:43;;;;;;;135.98;45.28;;;6.50;99.90;;;;;;4992791;28;20028;-72
2023/12/05 10:22:09;;;;;;;137.70;43.42;;;6.50;99.90;;;;;;4994288;28;20791;-71
2023/12/05 10:24:42;;;;;;;134.10;44.38;;;6.60;99.90;;;;;;4996429;28;20030;-71
2023/12/05 10:27:08;;;;;;;125.22;41.20;;;6.60;99.90;;;;;;4996204;28;20117;-74
2023/12/05 10:29:39;;;;;;;129.25;43.03;;;6.60;99.90;;;;;;4994802;28;20108;-69
2023/12/05 10:32:06;;;;;;;170.70;43.95;;;6.60;99.90;;;;;;4993435;28;20030;-69
2023/12/05 10:34:49;;;;;;;104.57;36.63;;;6.60;99.90;;;;;;4994428;28;20113;-72
2023/12/05 10:37:18;;;;;;;;;;;6.50;99.90;;;;;;4979133;28;20033;-76
2023/12/05 10:39:44;;;;;;;112.43;40.85;;;6.50;99.90;;;;;;4992973;28;20004;-70
2023/12/05 10:42:12;;;;;;;110.80;37.28;;;6.50;99.90;;;;;;4993919;28;20468;-76
2023/12/05 10:44:39;;;;;;;92.97;35.58;;;6.50;99.90;;;;;;4991943;28;20026;-71
2023/12/05 10:47:06;;;;;;;95.43;33.90;;;6.60;99.90;;;;;;4983502;28;20030;-71
2023/12/05 10:49:34;;;;;;;89.82;32.88;;;6.50;99.90;;;;;;4995636;28;20026;-70
2023/12/05 10:52:03;;;;;;;85.93;32.58;;;6.50;99.90;;;;;;4993763;28;20018;-69
2023/12/05 10:54:29;;;;;;;90.13;32.78;;;6.50;99.90;;;;;;4997900;28;20026;-69
2023/12/05 10:56:58;;;;;;;95.45;36.17;;;6.50;99.90;;;;;;4993872;28;20109;-69
2023/12/05 10:59:29;;;;;;;99.75;36.13;;;6.50;99.90;;;;;;4991760;28;20029;-69
2023/12/05 11:01:58;;;;;;;87.70;36.20;;;6.50;99.90;;;;;;4995729;28;20443;-70
2023/12/05 11:04:27;;;;;;;87.35;34.58;;;6.50;99.90;;;;;;4994564;28;21476;-69
2023/12/05 11:06:56;;;;;;;80.78;34.70;;;6.50;99.90;;;;;;4995878;28;20041;-75
2023/12/05 11:09:23;;;;;;;83.93;34.65;;;6.60;99.90;;;;;;4986971;28;20489;-69
2023/12/05 11:11:53;;;;;;;87.20;34.28;;;6.50;99.90;;;;;;4997900;28;20037;-69
2023/12/05 11:14:21;;;;;;;80.70;32.50;;;6.50;99.90;;;;;;4993613;28;20022;-69
2023/12/05 11:16:49;;;;;;;71.45;30.95;;;6.40;99.90;;;;;;4995826;28;20117;-69
2023/12/05 11:19:39;;;;;;;82.50;33.47;;;6.40;99.90;;;;;;4996487;28;20076;-71
2023/12/05 11:22:21;;;;;;;84.22;35.00;;;6.50;99.90;;;;;;4984382;28;20108;-69
2023/12/05 11:25:31;;;;;;;94.05;35.63;;;6.50;99.90;;;;;;4997429;28;20124;-70
2023/12/05 11:28:34;;;;;;;87.32;34.10;;;6.50;99.90;;;;;;4995972;28;20072;-69
2023/12/05 11:31:21;;;;;;;84.05;34.15;;;6.40;99.90;;;;;;4995353;28;20494;-69
2023/12/05 11:34:15;;;;;;;91.32;35.88;;;6.40;99.90;;;;;;4994519;28;20025;-69
2023/12/05 11:37:12;;;;;;;98.88;34.97;;;6.30;99.90;;;;;;4989316;28;20494;-69
2023/12/05 11:39:38;;;;;;;91.88;36.35;;;6.40;99.90;;;;;;4992285;28;20108;-69
2023/12/05 11:42:13;;;;;;;87.22;35.40;;;6.40;99.90;;;;;;4994830;28;20029;-74
2023/12/05 11:44:40;;;;;;;94.82;37.22;;;6.50;99.90;;;;;;4992769;28;20030;-69
2023/12/05 11:47:28;;;;;;;90.00;37.45;;;6.50;99.90;;;;;;4994914;28;20030;-70
2023/12/05 11:49:58;;;;;;;101.03;38.60;;;6.40;99.90;;;;;;4996130;28;20022;-69
2023/12/05 11:52:28;;;;;;;82.75;32.22;;;6.50;99.90;;;;;;4993885;28;20089;-73
2023/12/05 11:54:54;;;;;;;87.78;32.72;;;6.40;99.90;;;;;;4995121;28;20026;-74
2023/12/05 11:57:23;;;;;;;78.75;30.67;;;6.40;99.90;;;;;;4996173;28;20022;-70
2023/12/05 11:59:55;;;;;;;76.70;32.75;;;6.30;99.90;;;;;;4990024;28;20030;-73
2023/12/05 12:02:25;;;;;;;94.30;35.55;;;6.40;99.90;;;;;;4989803;28;20006;-76
2023/12/05 12:05:00;;;;;;;87.82;33.00;;;6.50;99.90;;;;;;5000024;28;20026;-77
2023/12/05 12:07:26;;;;;;;78.50;32.70;;;6.50;99.90;;;;;;4997167;28;20042;-75
2023/12/05 12:09:52;;;;;;;88.93;33.53;;;6.50;99.90;;;;;;4998661;28;20071;-74
2023/12/05 12:12:20;;;;;;;81.45;32.08;;;6.50;99.90;;;;;;4998202;28;20018;-75
2023/12/05 12:14:45;;;;;;;79.18;32.42;;;6.50;99.90;;;;;;4997814;28;20023;-77
2023/12/05 12:17:11;;;;;;;85.68;32.75;;;6.50;99.90;;;;;;4997311;28;20089;-72
2023/12/05 12:19:38;;;;;;;78.68;31.13;;;6.40;99.90;;;;;;4996944;28;20082;-77
2023/12/05 12:22:08;;;;;;;76.00;29.05;;;6.40;99.90;;;;;;4999256;28;20040;-69
2023/12/05 12:24:35;;;;;;;70.15;27.23;;;6.40;99.90;;;;;;4997727;28;20537;-72
2023/12/05 12:27:01;;;;;;;87.72;29.15;;;6.40;99.90;;;;;;4997682;28;20037;-69
2023/12/05 12:29:27;;;;;;;73.60;29.45;;;6.40;99.90;;;;;;4996081;28;21004;-69
2023/12/05 12:32:08;;;;;;;66.28;26.08;;;6.40;99.90;;;;;;4996472;28;20044;-71
2023/12/05 12:34:34;;;;;;;66.95;26.15;;;6.50;99.90;;;;;;4996006;28;20013;-73